Time;durP1;ratioP1;P1;durP2;ratioP2;P2;SDS_P1;SDS_P2;PMS_P1;PMS_P2;Temp;Humidity;BMP_temperature;BMP_pressure;BME280_temperature;BME280_humidity;BME280_pressure;Samples;Min_cycle;Max_cycle;Signal;HPM_P1;HPM_P2
2020/12/28 00:00:01;;;;;;;13.48;12.15;;;-0.50;82.30;;;;;;4928797;30;20088;-73
2020/12/28 00:02:33;;;;;;;13.52;12.32;;;-0.50;81.60;;;;;;4927548;29;20067;-72
2020/12/28 00:05:11;;;;;;;13.65;12.45;;;-0.50;81.50;;;;;;4926724;29;20059;-72
2020/12/28 00:07:43;;;;;;;13.65;12.43;;;-0.50;81.30;;;;;;4928181;30;20057;-73
2020/12/28 00:10:14;;;;;;;13.48;12.25;;;-0.50;81.30;;;;;;4940910;29;20404;-73
2020/12/28 00:12:49;;;;;;;13.30;12.20;;;-0.50;81.00;;;;;;4927914;30;20075;-73
2020/12/28 00:15:27;;;;;;;13.32;12.02;;;-0.50;80.80;;;;;;4927583;29;20052;-73
2020/12/28 00:18:02;;;;;;;12.95;11.85;;;-0.50;80.80;;;;;;4926544;29;20139;-73
2020/12/28 00:20:34;;;;;;;12.52;11.40;;;-0.50;80.60;;;;;;4927081;29;20056;-72
2020/12/28 00:23:05;;;;;;;11.95;10.85;;;-0.50;80.10;;;;;;4928182;30;20075;-72
2020/12/28 00:25:37;;;;;;;11.88;10.88;;;-0.50;80.00;;;;;;4927348;29;20051;-73
2020/12/28 00:28:08;;;;;;;12.32;11.23;;;-0.60;79.90;;;;;;4927175;30;20047;-72
2020/12/28 00:30:40;;;;;;;11.98;10.98;;;-0.60;80.00;;;;;;4940191;29;20055;-72
2020/12/28 00:33:11;;;;;;;12.07;11.07;;;-0.60;80.00;;;;;;4927400;30;20384;-73
2020/12/28 00:35:44;;;;;;;10.93;10.10;;;-0.60;79.80;;;;;;4927388;29;20500;-72
2020/12/28 00:38:15;;;;;;;10.57;9.70;;;-0.60;80.00;;;;;;4927616;30;20043;-73
2020/12/28 00:40:47;;;;;;;11.05;10.23;;;-0.60;79.70;;;;;;4940219;29;20056;-73
2020/12/28 00:43:18;;;;;;;11.27;10.38;;;-0.60;79.70;;;;;;4928070;30;20048;-73
2020/12/28 00:45:50;;;;;;;12.40;11.20;;;-0.60;79.70;;;;;;4926654;29;20056;-72
2020/12/28 00:48:21;;;;;;;10.85;9.95;;;-0.60;79.50;;;;;;4926399;30;20047;-72
2020/12/28 00:50:53;;;;;;;10.90;10.10;;;-0.70;79.60;;;;;;4923562;30;20123;-72
2020/12/28 00:53:25;;;;;;;10.98;10.18;;;-0.70;79.80;;;;;;4925128;30;20043;-72
2020/12/28 00:55:58;;;;;;;11.38;10.48;;;-0.70;80.10;;;;;;4927226;30;20666;-72
2020/12/28 00:58:29;;;;;;;12.05;11.00;;;-0.70;79.80;;;;;;4939810;29;20062;-72
2020/12/28 01:01:07;;;;;;;12.48;11.45;;;-0.80;80.00;;;;;;4926789;29;20048;-71
2020/12/28 01:03:39;;;;;;;12.55;11.45;;;-0.80;79.90;;;;;;4927154;30;20059;-71
2020/12/28 01:06:27;;;;;;;11.10;10.20;;;-0.90;79.60;;;;;;4927303;30;20052;-72
2020/12/28 01:09:19;;;;;;;11.38;10.48;;;-0.90;80.20;;;;;;4927321;29;20531;-72
2020/12/28 01:11:52;;;;;;;11.43;10.52;;;-1.00;81.20;;;;;;4924829;30;20116;-72
2020/12/28 01:14:24;;;;;;;10.93;10.02;;;-1.00;81.60;;;;;;4927864;29;20120;-72
2020/12/28 01:16:56;;;;;;;10.90;10.00;;;-1.00;80.90;;;;;;4926655;30;20036;-72
2020/12/28 01:19:28;;;;;;;11.30;10.40;;;-1.00;80.90;;;;;;4939700;29;20102;-73
2020/12/28 01:22:00;;;;;;;11.50;10.50;;;-1.00;80.80;;;;;;4926882;29;20380;-72
2020/12/28 01:24:32;;;;;;;11.20;10.30;;;-0.90;80.80;;;;;;4929439;30;20055;-72
2020/12/28 01:27:04;;;;;;;12.80;11.60;;;-0.90;80.60;;;;;;4926420;29;20040;-73
2020/12/28 01:29:35;;;;;;;12.52;11.40;;;-0.90;80.60;;;;;;4924218;30;20048;-72
2020/12/28 01:32:07;;;;;;;13.68;12.25;;;-0.90;80.70;;;;;;4939891;29;20158;-72
2020/12/28 01:34:58;;;;;;;12.93;11.73;;;-0.90;80.50;;;;;;4925592;30;20044;-72
2020/12/28 01:37:30;;;;;;;12.95;11.70;;;-0.80;81.00;;;;;;4924895;30;20093;-72
2020/12/28 01:40:03;;;;;;;13.95;12.65;;;-0.80;80.20;;;;;;4927105;29;20423;-72
2020/12/28 01:42:35;;;;;;;13.57;12.27;;;-0.80;80.30;;;;;;4938604;29;20056;-72
2020/12/28 01:45:07;;;;;;;13.05;11.85;;;-0.80;80.30;;;;;;4939404;29;20758;-72
2020/12/28 01:47:39;;;;;;;13.30;12.00;;;-0.80;80.40;;;;;;4926413;30;20035;-72
2020/12/28 01:50:14;;;;;;;13.60;12.30;;;-0.80;80.00;;;;;;4918105;29;20103;-72
2020/12/28 01:52:46;;;;;;;13.68;12.27;;;-0.80;79.90;;;;;;4939699;29;20635;-73
2020/12/28 01:55:17;;;;;;;14.38;12.05;;;-0.80;80.60;;;;;;4923964;29;20058;-73
2020/12/28 01:58:00;;;;;;;13.52;12.10;;;-0.80;79.90;;;;;;4937824;29;20056;-73
2020/12/28 02:00:33;;;;;;;13.18;11.88;;;-0.80;79.90;;;;;;4941216;29;20137;-72
2020/12/28 02:03:08;;;;;;;12.57;11.38;;;-0.90;80.40;;;;;;4939172;29;20087;-72
2020/12/28 02:05:50;;;;;;;13.30;12.00;;;-0.90;80.70;;;;;;4939061;29;20459;-72
2020/12/28 02:08:22;;;;;;;13.18;11.77;;;-1.00;80.90;;;;;;4924014;30;20059;-72
2020/12/28 02:10:54;;;;;;;13.40;12.10;;;-1.00;80.50;;;;;;4924278;30;20523;-73
2020/12/28 02:13:27;;;;;;;14.18;12.77;;;-1.00;80.60;;;;;;4939483;29;20054;-73
2020/12/28 02:16:19;;;;;;;13.18;11.95;;;-0.90;80.60;;;;;;4925171;29;20054;-72
2020/12/28 02:19:00;;;;;;;13.50;12.25;;;-1.00;80.50;;;;;;4938235;29;20043;-72
2020/12/28 02:21:38;;;;;;;12.48;11.38;;;-0.90;80.40;;;;;;4938069;29;20054;-73
2020/12/28 02:24:16;;;;;;;12.82;11.73;;;-0.90;80.10;;;;;;4938611;29;20044;-73
2020/12/28 02:26:50;;;;;;;13.30;12.00;;;-0.90;80.10;;;;;;4937586;29;20046;-72
2020/12/28 02:29:23;;;;;;;13.00;11.75;;;-0.90;80.30;;;;;;4909278;30;20040;-73
2020/12/28 02:31:54;;;;;;;12.73;11.57;;;-0.90;80.30;;;;;;4924305;30;20048;-73
2020/12/28 02:34:52;;;;;;;12.25;11.15;;;-0.90;80.10;;;;;;4939903;29;20542;-73
2020/12/28 02:37:35;;;;;;;12.32;11.13;;;-0.90;80.10;;;;;;4923053;30;20056;-73
2020/12/28 02:40:07;;;;;;;13.27;11.95;;;-0.80;80.10;;;;;;4938656;29;20133;-73
2020/12/28 02:42:51;;;;;;;11.68;10.68;;;-0.90;80.50;;;;;;4924263;30;20051;-72
2020/12/28 02:45:41;;;;;;;12.05;11.05;;;-0.80;80.60;;;;;;4924708;29;20439;-73
2020/12/28 02:48:31;;;;;;;11.82;10.73;;;-0.80;80.40;;;;;;4925966;30;20170;-72
2020/12/28 02:51:21;;;;;;;12.15;11.05;;;-0.80;80.30;;;;;;4925065;29;20109;-72
2020/12/28 02:54:11;;;;;;;12.27;11.07;;;-0.80;80.30;;;;;;4924854;30;20815;-72
2020/12/28 02:57:01;;;;;;;;;;;-0.80;80.10;;;;;;4925824;29;20558;-72
2020/12/28 02:59:51;;;;;;;12.15;11.15;;;-0.70;80.10;;;;;;4936598;29;19925;-72
2020/12/28 03:02:42;;;;;;;12.32;11.32;;;-0.70;79.90;;;;;;4925303;30;20159;-72
2020/12/28 03:05:32;;;;;;;12.40;11.40;;;-0.70;80.00;;;;;;4925305;29;20112;-72
2020/12/28 03:08:22;;;;;;;12.02;10.95;;;-0.70;80.00;;;;;;4924302;30;20128;-72
2020/12/28 03:11:12;;;;;;;12.25;11.25;;;-0.70;79.90;;;;;;4921229;30;20307;-73
2020/12/28 03:14:04;;;;;;;13.18;11.98;;;-0.70;80.00;;;;;;4935963;29;20074;-73
2020/12/28 03:16:54;;;;;;;12.98;11.77;;;-0.70;79.90;;;;;;4924503;29;20055;-72
2020/12/28 03:19:44;;;;;;;12.77;11.68;;;-0.70;79.80;;;;;;4924872;30;20068;-72
2020/12/28 03:22:34;;;;;;;;;;;-0.80;80.00;;;;;;4926560;29;20056;-72
2020/12/28 03:25:24;;;;;;;13.00;11.90;;;-0.80;80.20;;;;;;4923010;29;19986;-72
2020/12/28 03:28:16;;;;;;;13.82;12.63;;;-0.90;80.40;;;;;;4924033;30;20123;-72
2020/12/28 03:31:06;;;;;;;12.68;11.57;;;-0.90;80.00;;;;;;4924091;29;20043;-73
2020/12/28 03:33:56;;;;;;;;;;;-0.90;80.00;;;;;;4925869;30;20415;-72
2020/12/28 03:37:03;;;;;;;12.32;11.18;;;-0.90;80.10;;;;;;4976004;29;20891;-72
2020/12/28 03:39:53;;;;;;;12.10;11.10;;;-0.90;80.10;;;;;;4927702;29;20059;-72
2020/12/28 03:42:43;;;;;;;12.05;11.05;;;-0.90;80.10;;;;;;4925093;30;20054;-73
2020/12/28 03:45:46;;;;;;;11.77;10.85;;;-0.90;79.70;;;;;;4934191;29;20161;-73
2020/12/28 03:48:36;;;;;;;12.25;11.18;;;-0.90;79.80;;;;;;4924949;30;20537;-73
2020/12/28 03:51:34;;;;;;;12.38;11.38;;;-0.80;79.60;;;;;;4936795;29;20051;-72
2020/12/28 03:54:24;;;;;;;12.27;11.27;;;-0.90;79.60;;;;;;4924604;30;20903;-73
2020/12/28 03:57:14;;;;;;;12.50;11.40;;;-0.90;79.80;;;;;;4924273;29;20090;-73
2020/12/28 04:00:04;;;;;;;12.63;11.43;;;-0.90;79.70;;;;;;4925109;30;20052;-73
2020/12/28 04:02:50;;;;;;;12.60;11.60;;;-1.00;79.70;;;;;;4936549;29;20233;-73
2020/12/28 04:05:41;;;;;;;12.18;11.18;;;-1.00;79.80;;;;;;4924843;29;20196;-72
2020/12/28 04:08:31;;;;;;;11.70;10.70;;;-1.00;79.80;;;;;;4927549;30;20051;-74
2020/12/28 04:11:22;;;;;;;11.85;10.75;;;-1.00;79.80;;;;;;4926679;29;20472;-73
2020/12/28 04:14:03;;;;;;;11.98;10.98;;;-1.00;79.90;;;;;;4940823;29;20051;-73
2020/12/28 04:16:34;;;;;;;11.45;10.45;;;-1.00;79.80;;;;;;4928991;29;20062;-73
2020/12/28 04:19:06;;;;;;;11.40;10.43;;;-1.00;79.90;;;;;;4922495;30;20055;-74
2020/12/28 04:21:37;;;;;;;12.05;11.02;;;-1.00;80.00;;;;;;4940467;29;20055;-73
2020/12/28 04:24:09;;;;;;;11.63;10.63;;;-1.00;80.30;;;;;;4928499;30;20044;-73
2020/12/28 04:26:40;;;;;;;11.55;10.65;;;-1.10;81.60;;;;;;4940879;29;20055;-74
2020/12/28 04:29:12;;;;;;;11.95;10.93;;;-1.20;81.80;;;;;;4927726;30;20415;-73
2020/12/28 04:31:44;;;;;;;12.52;11.52;;;-1.10;81.60;;;;;;4927150;29;20047;-73
2020/12/28 04:34:16;;;;;;;12.73;11.70;;;-1.10;81.10;;;;;;4926917;30;20035;-73
2020/12/28 04:36:48;;;;;;;12.63;11.60;;;-1.00;81.00;;;;;;4926793;29;20573;-74
2020/12/28 04:39:19;;;;;;;12.43;11.32;;;-1.00;80.90;;;;;;4941107;29;20055;-73
2020/12/28 04:41:51;;;;;;;12.27;11.27;;;-1.00;80.90;;;;;;4926025;29;20105;-73
2020/12/28 04:44:22;;;;;;;11.70;10.70;;;-0.90;80.80;;;;;;4927244;30;20067;-71
2020/12/28 04:46:53;;;;;;;12.45;11.45;;;-0.90;80.60;;;;;;4926222;29;20101;-73
2020/12/28 04:49:25;;;;;;;12.85;11.65;;;-0.90;80.60;;;;;;4927268;30;20523;-72
2020/12/28 04:51:58;;;;;;;11.80;10.80;;;-0.90;80.70;;;;;;4924259;29;20047;-73
2020/12/28 04:54:29;;;;;;;12.18;11.10;;;-0.80;80.40;;;;;;4926966;30;20047;-73
2020/12/28 04:57:01;;;;;;;13.30;12.13;;;-0.80;80.40;;;;;;4926762;29;20083;-73
2020/12/28 04:59:32;;;;;;;13.68;12.48;;;-0.90;80.80;;;;;;4927586;30;20915;-72
2020/12/28 05:02:04;;;;;;;14.30;12.90;;;-0.80;81.10;;;;;;4927222;29;20147;-73
2020/12/28 05:04:36;;;;;;;13.77;12.57;;;-0.90;81.00;;;;;;4927253;30;20047;-73
2020/12/28 05:07:07;;;;;;;13.75;12.55;;;-0.90;81.10;;;;;;4926527;29;20059;-73
2020/12/28 05:09:39;;;;;;;13.57;12.48;;;-0.90;81.10;;;;;;4926108;30;20131;-73
2020/12/28 05:12:10;;;;;;;13.15;12.02;;;-0.90;81.10;;;;;;4926047;29;20592;-73
2020/12/28 05:14:42;;;;;;;13.52;12.23;;;-0.90;81.20;;;;;;4927454;30;20427;-72
2020/12/28 05:17:13;;;;;;;13.15;12.02;;;-0.80;81.00;;;;;;4925314;29;20125;-72
2020/12/28 05:19:45;;;;;;;13.63;12.43;;;-0.80;81.00;;;;;;4938770;29;20071;-72
2020/12/28 05:22:17;;;;;;;13.50;12.40;;;-0.90;81.20;;;;;;4924969;29;20590;-71
2020/12/28 05:24:51;;;;;;;14.23;13.00;;;-0.90;81.70;;;;;;4924816;30;20051;-72
2020/12/28 05:27:23;;;;;;;12.95;11.77;;;-0.90;81.60;;;;;;4924554;29;20056;-71
2020/12/28 05:29:57;;;;;;;13.52;12.38;;;-0.90;82.00;;;;;;4939220;29;20047;-72
2020/12/28 05:32:29;;;;;;;12.93;11.77;;;-1.00;81.70;;;;;;4925570;29;20052;-72
2020/12/28 05:35:04;;;;;;;12.68;11.68;;;-1.00;81.80;;;;;;4940386;29;20044;-72
2020/12/28 05:37:37;;;;;;;12.90;11.80;;;-1.00;81.90;;;;;;4922801;30;20521;-72
2020/12/28 05:40:11;;;;;;;13.02;11.93;;;-0.90;81.90;;;;;;4925455;29;20101;-71
2020/12/28 05:42:50;;;;;;;11.98;10.98;;;-0.90;81.90;;;;;;4926794;30;20055;-72
2020/12/28 05:45:22;;;;;;;11.90;10.90;;;-0.90;81.60;;;;;;4926610;29;20044;-73
2020/12/28 05:47:55;;;;;;;11.85;10.85;;;-0.90;81.70;;;;;;4926430;30;20144;-73
2020/12/28 05:50:31;;;;;;;11.98;10.95;;;-0.90;81.50;;;;;;4939129;29;20113;-72
2020/12/28 05:53:03;;;;;;;12.18;11.13;;;-0.80;80.90;;;;;;4926509;30;20654;-73
2020/12/28 05:55:35;;;;;;;12.55;11.45;;;-0.80;80.90;;;;;;4924579;29;20079;-73
2020/12/28 05:58:07;;;;;;;12.02;10.98;;;-0.80;80.90;;;;;;4926408;30;20063;-73
2020/12/28 06:00:40;;;;;;;11.73;10.73;;;-0.80;81.00;;;;;;4938958;29;20148;-73
2020/12/28 06:03:12;;;;;;;12.65;11.38;;;-0.70;81.00;;;;;;4925898;30;20048;-73
2020/12/28 06:05:52;;;;;;;11.70;10.70;;;-0.70;81.10;;;;;;4938969;29;20079;-73
2020/12/28 06:08:23;;;;;;;12.13;11.13;;;-0.70;81.10;;;;;;4925267;30;20048;-73
2020/12/28 06:10:55;;;;;;;12.13;11.13;;;-0.60;80.90;;;;;;4925884;29;20051;-73
2020/12/28 06:13:27;;;;;;;13.18;11.80;;;-0.70;80.90;;;;;;4926207;30;20072;-73
2020/12/28 06:16:00;;;;;;;12.68;11.57;;;-0.60;80.80;;;;;;4925433;29;20086;-73
2020/12/28 06:18:32;;;;;;;12.73;11.63;;;-0.60;80.70;;;;;;4926856;30;20456;-73
2020/12/28 06:21:12;;;;;;;12.75;11.60;;;-0.60;80.50;;;;;;4925142;29;20052;-73
2020/12/28 06:23:48;;;;;;;11.93;10.93;;;-0.60;80.60;;;;;;4926166;30;20109;-73
2020/12/28 06:26:21;;;;;;;12.20;11.20;;;-0.70;80.80;;;;;;4924560;29;20129;-72
2020/12/28 06:29:06;;;;;;;12.45;11.45;;;-0.70;80.90;;;;;;4925586;30;20047;-73
2020/12/28 06:31:37;;;;;;;12.55;11.45;;;-0.70;80.70;;;;;;4924802;29;20462;-73
2020/12/28 06:34:18;;;;;;;12.88;11.77;;;-0.70;80.80;;;;;;4925285;30;20054;-72
2020/12/28 06:37:02;;;;;;;13.05;11.95;;;-0.70;81.10;;;;;;4924161;29;20050;-75
2020/12/28 06:39:34;;;;;;;31.45;22.27;;;-0.70;81.00;;;;;;4924724;30;20074;-73
2020/12/28 06:42:15;;;;;;;14.88;13.43;;;-0.70;80.80;;;;;;4924265;29;20047;-73
2020/12/28 06:44:46;;;;;;;13.30;11.90;;;-0.70;81.60;;;;;;4925088;30;20130;-73
2020/12/28 06:47:30;;;;;;;13.90;12.68;;;-0.70;81.10;;;;;;4923219;29;20608;-74
2020/12/28 06:50:02;;;;;;;12.85;11.65;;;-0.70;80.90;;;;;;4924569;30;20043;-73
2020/12/28 06:52:33;;;;;;;12.55;11.55;;;-0.70;80.90;;;;;;4924104;29;20167;-73
2020/12/28 06:55:09;;;;;;;12.57;11.48;;;-0.60;80.70;;;;;;4923995;29;20060;-73
2020/12/28 06:57:40;;;;;;;13.10;12.00;;;-0.60;80.60;;;;;;4923598;30;20048;-74
2020/12/28 07:00:19;;;;;;;12.45;11.30;;;-0.50;81.30;;;;;;4923294;29;20547;-74
2020/12/28 07:02:55;;;;;;;12.93;11.63;;;-0.50;80.50;;;;;;4925017;30;20135;-73
2020/12/28 07:05:27;;;;;;;13.43;12.23;;;-0.50;80.50;;;;;;4923676;29;20044;-73
2020/12/28 07:07:58;;;;;;;14.23;12.82;;;-0.50;80.40;;;;;;4923066;30;20396;-73
2020/12/28 07:10:30;;;;;;;16.00;14.10;;;-0.50;80.20;;;;;;4937507;29;20052;-73
2020/12/28 07:13:04;;;;;;;16.73;15.13;;;-0.50;80.20;;;;;;4938146;29;20469;-73
2020/12/28 07:15:35;;;;;;;15.88;14.32;;;-0.40;80.20;;;;;;4924131;29;20073;-73
2020/12/28 07:18:07;;;;;;;15.88;14.38;;;-0.50;80.20;;;;;;4925027;30;20131;-73
2020/12/28 07:20:39;;;;;;;13.35;12.15;;;-0.40;80.20;;;;;;4923301;29;20067;-73
2020/12/28 07:23:11;;;;;;;14.40;13.02;;;-0.40;80.00;;;;;;4923692;30;20044;-74
2020/12/28 07:25:43;;;;;;;14.82;13.32;;;-0.40;80.00;;;;;;4937948;29;20056;-73
2020/12/28 07:28:14;;;;;;;15.38;13.93;;;-0.40;79.80;;;;;;4923780;30;20437;-73
2020/12/28 07:30:55;;;;;;;14.25;12.85;;;-0.30;79.70;;;;;;4922033;29;20052;-73
2020/12/28 07:33:28;;;;;;;13.52;12.27;;;-0.30;79.70;;;;;;4924004;30;20063;-73
2020/12/28 07:36:14;;;;;;;12.25;11.15;;;-0.30;79.50;;;;;;4936777;29;20048;-73
2020/12/28 07:38:47;;;;;;;12.15;11.05;;;-0.30;79.50;;;;;;4923488;30;20572;-73
2020/12/28 07:41:23;;;;;;;12.25;11.05;;;-0.40;79.50;;;;;;4936869;29;20156;-73
2020/12/28 07:43:58;;;;;;;12.80;11.60;;;-0.40;79.60;;;;;;4924526;30;20895;-74
2020/12/28 07:46:35;;;;;;;12.88;11.68;;;-0.50;79.70;;;;;;4924127;29;20110;-73
2020/12/28 07:49:20;;;;;;;12.18;11.07;;;-0.40;79.60;;;;;;4926319;30;20740;-73
2020/12/28 07:52:07;;;;;;;13.27;11.98;;;-0.40;79.80;;;;;;4925710;29;20047;-73
2020/12/28 07:54:51;;;;;;;16.23;14.63;;;-0.40;80.20;;;;;;4926839;30;20107;-73
2020/12/28 07:57:47;;;;;;;12.50;11.23;;;-0.40;79.90;;;;;;4927182;29;20043;-72
2020/12/28 08:00:24;;;;;;;14.00;12.63;;;-0.40;79.90;;;;;;4941755;29;20047;-72
2020/12/28 08:03:28;;;;;;;15.45;13.88;;;-0.30;80.00;;;;;;4926495;30;20387;-72
2020/12/28 08:06:05;;;;;;;15.30;13.48;;;-0.30;79.60;;;;;;4926199;29;20123;-71
2020/12/28 08:08:37;;;;;;;15.35;13.75;;;-0.30;79.80;;;;;;4926271;30;20067;-70
2020/12/28 08:11:08;;;;;;;13.10;11.90;;;-0.30;79.70;;;;;;4924627;29;20051;-71
2020/12/28 08:13:40;;;;;;;13.00;11.80;;;-0.30;79.80;;;;;;4924780;30;20047;-72
2020/12/28 08:16:15;;;;;;;14.65;12.45;;;-0.30;79.80;;;;;;4938092;29;20051;-71
2020/12/28 08:18:55;;;;;;;13.93;12.50;;;-0.30;79.90;;;;;;4926364;29;20043;-70
2020/12/28 08:21:43;;;;;;;15.53;13.33;;;-0.30;80.00;;;;;;4925138;29;20056;-70
2020/12/28 08:24:19;;;;;;;12.95;11.75;;;-0.30;79.90;;;;;;4926079;30;20669;-70
2020/12/28 08:26:51;;;;;;;12.73;11.52;;;-0.30;80.00;;;;;;4926415;29;20098;-73
2020/12/28 08:29:22;;;;;;;12.55;11.32;;;-0.30;80.00;;;;;;4922812;30;20066;-73
2020/12/28 08:31:58;;;;;;;12.55;11.35;;;-0.20;80.00;;;;;;4924883;29;20099;-73
2020/12/28 08:34:31;;;;;;;12.68;11.38;;;-0.20;79.90;;;;;;4926081;30;20044;-73
2020/12/28 08:37:03;;;;;;;11.60;10.50;;;-0.20;79.60;;;;;;4923423;29;20048;-73
2020/12/28 08:39:35;;;;;;;13.18;11.98;;;-0.20;79.90;;;;;;4936419;29;20060;-73
2020/12/28 08:42:07;;;;;;;13.10;11.90;;;-0.10;80.10;;;;;;4924777;29;20072;-74
2020/12/28 08:44:41;;;;;;;12.30;11.20;;;-0.10;80.00;;;;;;4936395;29;20086;-73
2020/12/28 08:47:13;;;;;;;11.88;10.68;;;-0.10;80.00;;;;;;4920615;29;21166;-74
2020/12/28 08:49:48;;;;;;;12.98;11.77;;;0.00;79.80;;;;;;4931878;29;20051;-73
2020/12/28 08:52:22;;;;;;;12.82;11.63;;;0.00;79.40;;;;;;4922129;29;20189;-73
2020/12/28 08:54:59;;;;;;;13.48;12.18;;;-0.10;80.20;;;;;;4924272;30;20087;-71
2020/12/28 08:57:30;;;;;;;13.52;12.30;;;0.00;80.20;;;;;;4921606;29;20051;-72
2020/12/28 09:00:03;;;;;;;13.15;11.90;;;0.00;79.90;;;;;;4924179;30;20120;-72
2020/12/28 09:02:37;;;;;;;12.07;10.95;;;0.10;80.00;;;;;;4925650;29;20312;-71
2020/12/28 09:05:08;;;;;;;11.48;10.38;;;0.20;79.90;;;;;;4937598;29;20556;-72
2020/12/28 09:07:40;;;;;;;12.38;11.20;;;0.20;79.90;;;;;;4925454;30;20132;-71
2020/12/28 09:10:12;;;;;;;13.30;12.07;;;0.30;79.70;;;;;;4923590;29;20130;-72
2020/12/28 09:12:43;;;;;;;12.63;11.38;;;0.30;79.80;;;;;;4925176;30;20151;-71
2020/12/28 09:15:15;;;;;;;15.23;12.50;;;0.40;79.50;;;;;;4937052;29;20047;-72
2020/12/28 09:17:46;;;;;;;13.10;11.88;;;0.40;79.70;;;;;;4924912;30;20062;-69
2020/12/28 09:20:18;;;;;;;12.10;10.77;;;0.50;79.70;;;;;;4925266;29;20123;-71
2020/12/28 09:22:49;;;;;;;15.15;13.30;;;0.50;79.80;;;;;;4924507;29;20048;-74
2020/12/28 09:25:21;;;;;;;13.27;11.88;;;0.50;79.10;;;;;;4923615;29;20422;-74
2020/12/28 09:27:52;;;;;;;12.18;11.07;;;0.50;78.60;;;;;;4918994;30;20051;-75
2020/12/28 09:30:24;;;;;;;13.30;12.05;;;0.50;77.60;;;;;;4922920;29;20048;-73
2020/12/28 09:32:56;;;;;;;14.80;12.88;;;0.40;78.20;;;;;;4925276;30;20182;-73
2020/12/28 09:35:27;;;;;;;13.60;12.25;;;0.30;78.60;;;;;;4923383;29;20059;-74
2020/12/28 09:38:00;;;;;;;12.75;11.55;;;0.20;79.20;;;;;;4920864;30;20066;-74
2020/12/28 09:40:32;;;;;;;11.65;10.55;;;0.20;79.70;;;;;;4923895;29;20056;-74
2020/12/28 09:43:03;;;;;;;13.57;11.32;;;0.30;79.40;;;;;;4925402;30;20067;-75
2020/12/28 09:45:38;;;;;;;13.05;11.85;;;0.40;78.80;;;;;;4922807;29;20155;-75
2020/12/28 09:48:09;;;;;;;11.70;10.55;;;0.40;78.70;;;;;;4923950;30;20047;-74
2020/12/28 09:50:50;;;;;;;12.30;11.20;;;0.50;75.70;;;;;;4924836;29;20150;-74
2020/12/28 09:53:21;;;;;;;13.63;12.07;;;0.60;77.20;;;;;;4925380;30;20752;-75
2020/12/28 09:55:53;;;;;;;18.35;11.80;;;0.70;76.50;;;;;;4925229;29;20052;-73
2020/12/28 09:58:24;;;;;;;11.88;10.77;;;0.70;76.00;;;;;;4925293;30;20140;-74
2020/12/28 10:00:56;;;;;;;10.80;9.80;;;0.70;76.80;;;;;;4923224;29;20056;-73
2020/12/28 10:03:27;;;;;;;10.95;9.95;;;0.80;76.30;;;;;;4924671;30;20120;-74
2020/12/28 10:05:59;;;;;;;12.02;10.90;;;0.70;75.40;;;;;;4924648;29;20048;-74
2020/12/28 10:08:31;;;;;;;18.27;16.48;;;0.80;75.40;;;;;;4924484;30;20040;-74
2020/12/28 10:11:02;;;;;;;11.32;10.32;;;0.80;74.10;;;;;;4937706;29;20038;-73
2020/12/28 10:13:34;;;;;;;10.57;9.68;;;0.80;72.00;;;;;;4924194;30;21186;-73
2020/12/28 10:16:05;;;;;;;9.98;9.07;;;0.80;70.40;;;;;;4924414;29;20059;-72
2020/12/28 10:18:41;;;;;;;9.57;8.77;;;0.80;68.10;;;;;;4924473;30;20082;-74
2020/12/28 10:21:12;;;;;;;11.00;10.00;;;0.90;65.90;;;;;;4923981;29;20788;-73
2020/12/28 10:23:45;;;;;;;24.08;15.65;;;1.00;68.70;;;;;;4924069;30;20048;-73
2020/12/28 10:26:27;;;;;;;21.05;14.80;;;1.10;72.00;;;;;;4923419;29;20188;-73
2020/12/28 10:28:59;;;;;;;18.73;14.43;;;1.20;73.20;;;;;;4924812;30;20036;-75
2020/12/28 10:31:30;;;;;;;16.50;14.70;;;1.20;73.00;;;;;;4924823;30;20592;-75
2020/12/28 10:34:02;;;;;;;20.27;15.98;;;1.20;71.60;;;;;;4925712;30;20056;-74
2020/12/28 10:36:33;;;;;;;20.00;16.85;;;1.20;72.90;;;;;;4923538;29;20059;-73
2020/12/28 10:39:05;;;;;;;20.55;18.55;;;1.20;74.50;;;;;;4924160;30;20163;-74
2020/12/28 10:41:37;;;;;;;17.40;15.80;;;1.20;74.90;;;;;;4937697;29;20086;-74
2020/12/28 10:44:08;;;;;;;15.40;13.45;;;1.20;75.40;;;;;;4924972;30;20047;-74
2020/12/28 10:46:40;;;;;;;24.60;18.85;;;1.20;75.50;;;;;;4923173;29;20055;-73
2020/12/28 10:49:12;;;;;;;26.05;21.77;;;1.30;75.50;;;;;;4921562;30;20040;-73
2020/12/28 10:51:45;;;;;;;22.13;18.95;;;1.30;75.30;;;;;;4922107;29;20078;-73
2020/12/28 10:54:16;;;;;;;21.27;16.58;;;1.40;75.60;;;;;;4923682;30;20410;-73
2020/12/28 10:56:48;;;;;;;17.83;13.80;;;1.40;75.40;;;;;;4922192;29;20088;-73
2020/12/28 10:59:19;;;;;;;14.43;12.98;;;1.40;75.90;;;;;;4924891;30;20047;-73
2020/12/28 11:01:51;;;;;;;14.90;13.40;;;1.50;76.00;;;;;;4922220;29;20059;-73
2020/12/28 11:04:22;;;;;;;14.88;13.48;;;1.50;76.20;;;;;;4924603;30;20075;-75
2020/12/28 11:06:53;;;;;;;14.35;12.95;;;1.50;76.20;;;;;;5392972;24;20026;-72
2020/12/28 11:09:50;;;;;;;13.52;12.23;;;1.50;77.10;;;;;;4937919;29;20047;-73
2020/12/28 11:12:22;;;;;;;15.40;14.00;;;1.60;76.60;;;;;;4942203;29;20104;-74
2020/12/28 11:14:53;;;;;;;14.38;13.07;;;1.60;76.50;;;;;;4954897;29;20047;-75
2020/12/28 11:17:25;;;;;;;17.02;14.13;;;1.70;76.60;;;;;;4947124;29;20109;-74
2020/12/28 11:19:58;;;;;;;14.70;13.20;;;1.70;76.80;;;;;;4946930;29;20128;-76
2020/12/28 11:22:29;;;;;;;15.43;14.02;;;1.70;76.80;;;;;;4947104;29;20055;-77
2020/12/28 11:25:01;;;;;;;15.68;14.18;;;1.70;77.10;;;;;;4947700;29;20043;-75
2020/12/28 11:27:32;;;;;;;15.00;13.57;;;1.70;77.10;;;;;;4945840;29;20059;-76
2020/12/28 11:30:07;;;;;;;14.35;13.02;;;1.70;77.30;;;;;;4944875;29;20047;-75
2020/12/28 11:32:38;;;;;;;14.93;13.63;;;1.80;77.30;;;;;;4957719;29;20039;-76
2020/12/28 11:35:10;;;;;;;14.55;13.25;;;1.70;77.70;;;;;;4944325;29;20102;-74
2020/12/28 11:37:41;;;;;;;14.73;13.23;;;1.70;77.90;;;;;;4944152;29;20051;-75
2020/12/28 11:40:12;;;;;;;14.52;13.23;;;1.70;77.90;;;;;;4944787;29;20661;-75
2020/12/28 11:42:44;;;;;;;14.45;13.05;;;1.70;78.10;;;;;;4945425;29;20051;-76
2020/12/28 11:45:16;;;;;;;14.40;13.00;;;1.70;78.10;;;;;;4958756;29;20047;-76
2020/12/28 11:47:47;;;;;;;13.00;11.70;;;1.80;78.30;;;;;;4946465;29;20059;-76
2020/12/28 11:50:19;;;;;;;13.60;12.40;;;1.70;78.40;;;;;;4948148;29;20051;-76
2020/12/28 11:52:50;;;;;;;12.57;11.48;;;1.70;79.50;;;;;;4951322;29;20394;-77
2020/12/28 11:55:21;;;;;;;13.15;11.60;;;1.80;78.50;;;;;;4952581;29;20047;-76
2020/12/28 11:57:53;;;;;;;13.25;11.90;;;1.80;78.70;;;;;;4952221;29;20055;-76
2020/12/28 12:00:24;;;;;;;13.50;11.70;;;1.80;79.80;;;;;;4946152;29;20079;-75
2020/12/28 12:02:56;;;;;;;12.27;11.07;;;1.80;79.20;;;;;;4946727;29;20051;-75
2020/12/28 12:05:27;;;;;;;12.20;11.00;;;1.80;79.40;;;;;;4944986;29;20074;-75
2020/12/28 12:07:59;;;;;;;13.10;11.95;;;1.80;79.30;;;;;;4943757;29;20112;-75
2020/12/28 12:10:32;;;;;;;14.52;13.05;;;1.80;79.40;;;;;;4944905;29;20370;-75
2020/12/28 12:13:03;;;;;;;13.40;12.30;;;1.90;79.70;;;;;;4943409;29;20108;-75
2020/12/28 12:15:42;;;;;;;12.38;11.38;;;1.90;79.50;;;;;;4946155;29;20123;-76
2020/12/28 12:18:13;;;;;;;12.70;11.50;;;1.90;79.30;;;;;;4948290;29;20047;-76
2020/12/28 12:20:45;;;;;;;12.63;11.52;;;1.90;79.40;;;;;;4947502;29;20051;-76
2020/12/28 12:23:16;;;;;;;12.18;11.13;;;2.00;79.30;;;;;;4946187;29;20128;-76
2020/12/28 12:25:48;;;;;;;12.73;11.63;;;1.90;79.30;;;;;;4942862;29;20051;-76
2020/12/28 12:28:19;;;;;;;12.55;11.55;;;1.90;79.30;;;;;;4947820;29;20047;-76
2020/12/28 12:30:50;;;;;;;12.85;11.85;;;2.00;79.50;;;;;;4959860;29;20047;-75
2020/12/28 12:33:22;;;;;;;13.27;12.20;;;2.00;79.50;;;;;;4947515;29;20058;-76
2020/12/28 12:35:54;;;;;;;13.32;12.13;;;2.00;79.60;;;;;;4946463;29;20134;-75
2020/12/28 12:38:25;;;;;;;12.55;11.55;;;2.00;79.80;;;;;;4945185;29;20051;-76
2020/12/28 12:40:58;;;;;;;11.55;10.65;;;2.00;79.70;;;;;;4944010;29;20520;-78
2020/12/28 12:43:29;;;;;;;11.90;11.00;;;2.00;79.60;;;;;;4943471;29;20561;-77
2020/12/28 12:46:01;;;;;;;12.68;11.50;;;2.00;79.50;;;;;;4944729;29;20097;-80
2020/12/28 12:48:32;;;;;;;12.73;11.63;;;2.00;80.20;;;;;;4946194;29;20066;-76
2020/12/28 12:51:04;;;;;;;11.70;10.70;;;2.00;79.90;;;;;;4951812;29;20039;-75
2020/12/28 12:53:36;;;;;;;12.40;11.40;;;2.00;79.90;;;;;;4950268;29;20941;-78
2020/12/28 12:56:07;;;;;;;13.10;12.10;;;2.00;79.70;;;;;;4960592;29;20040;-78
2020/12/28 12:58:39;;;;;;;13.45;12.35;;;1.90;79.90;;;;;;4953826;29;20154;-78
2020/12/28 13:01:13;;;;;;;13.15;12.15;;;1.90;79.90;;;;;;4952250;29;20519;-77
2020/12/28 13:03:46;;;;;;;13.45;12.45;;;2.00;79.80;;;;;;4953246;29;20051;-79
2020/12/28 13:06:17;;;;;;;13.05;12.05;;;2.00;79.80;;;;;;4944620;29;20437;-78
2020/12/28 13:08:49;;;;;;;13.00;12.00;;;2.00;79.80;;;;;;4943367;29;20051;-78
2020/12/28 13:11:21;;;;;;;13.35;12.35;;;2.00;80.10;;;;;;4915688;30;20288;-74